createdAt,value
2022-10-26T00:01:29.621Z,6.70
2022-10-26T00:03:58.909Z,7.07
2022-10-26T00:06:29.216Z,9.20
2022-10-26T00:08:58.683Z,6.10
2022-10-26T00:11:28.620Z,6.13
2022-10-26T00:13:57.045Z,6.30
2022-10-26T00:16:28.486Z,7.50
2022-10-26T00:18:57.066Z,8.03
2022-10-26T00:21:25.644Z,6.67
2022-10-26T00:23:54.096Z,6.37
2022-10-26T00:26:22.583Z,7.57
2022-10-26T00:28:55.346Z,7.17
2022-10-26T00:31:24.098Z,7.27
2022-10-26T00:33:54.842Z,7.57
2022-10-26T00:36:23.963Z,8.63
2022-10-26T00:38:53.363Z,7.33
2022-10-26T00:41:24.113Z,7.00
2022-10-26T00:43:54.651Z,7.27
2022-10-26T00:46:26.041Z,8.10
2022-10-26T00:48:57.602Z,7.83
2022-10-26T00:51:32.573Z,7.80
2022-10-26T00:54:04.077Z,7.03
2022-10-26T00:56:35.054Z,7.50
2022-10-26T00:59:07.868Z,8.17
2022-10-26T01:01:37.569Z,7.30
2022-10-26T01:04:06.497Z,8.50
2022-10-26T01:06:37.473Z,11.00
2022-10-26T01:09:06.596Z,7.10
2022-10-26T01:11:35.073Z,7.27
2022-10-26T01:14:08.912Z,8.03
2022-10-26T01:16:52.577Z,8.00
2022-10-26T01:20:03.717Z,8.27
2022-10-26T01:22:36.263Z,7.07
2022-10-26T01:25:13.530Z,7.17
2022-10-26T01:27:44.085Z,8.70
2022-10-26T01:30:23.245Z,9.33
2022-10-26T01:33:21.522Z,8.30
2022-10-26T01:36:01.395Z,9.00
2022-10-26T01:38:40.287Z,7.53
2022-10-26T01:41:16.640Z,8.80
2022-10-26T01:43:50.817Z,9.50
2022-10-26T01:46:22.745Z,9.70
2022-10-26T01:48:56.583Z,10.07
2022-10-26T01:51:26.333Z,9.20
2022-10-26T01:53:54.878Z,9.00
2022-10-26T01:56:25.473Z,9.47
2022-10-26T01:59:21.229Z,8.70
2022-10-26T02:02:18.761Z,7.70
2022-10-26T02:05:03.448Z,7.90
2022-10-26T02:07:40.844Z,8.60
2022-10-26T02:10:19.268Z,8.50
2022-10-26T02:12:58.791Z,8.20
2022-10-26T02:15:33.930Z,10.10
2022-10-26T02:18:11.042Z,9.20
2022-10-26T02:20:44.168Z,8.77
2022-10-26T02:23:14.629Z,8.73
2022-10-26T02:25:48.612Z,8.17
2022-10-26T02:28:25.932Z,6.50
2022-10-26T02:30:58.399Z,8.30
2022-10-26T02:33:31.311Z,8.60
2022-10-26T02:36:02.414Z,8.97
2022-10-26T02:38:33.980Z,9.17
2022-10-26T02:41:03.994Z,9.30
2022-10-26T02:43:35.593Z,9.73
2022-10-26T02:46:09.667Z,9.57
2022-10-26T02:48:39.736Z,7.53
2022-10-26T02:51:13.442Z,9.23
2022-10-26T02:53:47.840Z,9.30
2022-10-26T02:56:21.158Z,9.23
2022-10-26T02:58:54.060Z,9.30
2022-10-26T03:01:22.640Z,8.00
2022-10-26T03:03:52.633Z,8.30
2022-10-26T03:06:24.626Z,8.17
2022-10-26T03:08:53.461Z,7.60
2022-10-26T03:11:22.060Z,8.73
2022-10-26T03:13:50.532Z,8.10
2022-10-26T03:16:19.003Z,10.00
2022-10-26T03:18:47.487Z,8.30
2022-10-26T03:21:17.324Z,9.23
2022-10-26T03:23:47.857Z,9.17
2022-10-26T03:26:16.317Z,10.57
2022-10-26T03:28:46.001Z,9.30
2022-10-26T03:31:14.665Z,9.57
2022-10-26T03:33:43.168Z,10.13
2022-10-26T03:36:11.978Z,9.40
2022-10-26T03:38:41.907Z,9.40
2022-10-26T03:41:10.438Z,8.20
2022-10-26T03:43:38.932Z,7.73
2022-10-26T03:46:08.734Z,7.57
2022-10-26T03:48:37.215Z,7.37
2022-10-26T03:51:05.868Z,7.07
2022-10-26T03:53:34.402Z,8.03
2022-10-26T03:56:04.349Z,8.60
2022-10-26T03:58:32.808Z,8.23
2022-10-26T04:01:01.367Z,7.80
2022-10-26T04:03:29.874Z,7.83
2022-10-26T04:06:01.254Z,8.33
2022-10-26T04:08:29.797Z,9.37
2022-10-26T04:10:59.926Z,7.57
2022-10-26T04:13:32.514Z,7.00
2022-10-26T04:16:00.963Z,7.40
2022-10-26T04:18:29.412Z,7.57
2022-10-26T04:21:01.531Z,7.73
2022-10-26T04:23:30.025Z,6.43
2022-10-26T04:25:58.521Z,7.97
2022-10-26T04:28:27.019Z,7.40
2022-10-26T04:30:56.838Z,7.10
2022-10-26T04:33:25.391Z,7.27
2022-10-26T04:35:53.862Z,8.30
2022-10-26T04:38:22.332Z,6.30
2022-10-26T04:40:52.767Z,7.60
2022-10-26T04:43:21.317Z,8.03
2022-10-26T04:45:49.759Z,8.77
2022-10-26T04:48:19.672Z,7.03
2022-10-26T04:50:48.123Z,8.83
2022-10-26T04:53:16.635Z,6.47
2022-10-26T04:55:45.096Z,9.47
2022-10-26T04:58:13.669Z,13.70
2022-10-26T05:00:42.108Z,15.20
2022-10-26T05:03:11.584Z,12.53
2022-10-26T05:05:41.429Z,8.77
2022-10-26T05:08:09.919Z,7.77
2022-10-26T05:10:38.399Z,8.23
2022-10-26T05:13:07.049Z,6.50
2022-10-26T05:15:35.504Z,6.40
2022-10-26T05:18:06.473Z,6.30
2022-10-26T05:20:36.537Z,6.37
2022-10-26T05:23:08.500Z,6.20
2022-10-26T05:25:38.163Z,6.90
2022-10-26T05:28:09.564Z,7.93
2022-10-26T05:30:38.205Z,6.40
2022-10-26T05:33:07.633Z,6.73
2022-10-26T05:35:36.114Z,7.30
2022-10-26T05:38:10.606Z,7.87
2022-10-26T05:40:39.214Z,7.47
2022-10-26T05:43:07.809Z,8.20
2022-10-26T05:45:36.275Z,11.00
2022-10-26T05:48:04.888Z,8.90
2022-10-26T05:50:33.464Z,7.90
2022-10-26T05:53:01.958Z,8.73
2022-10-26T05:55:32.811Z,7.77
2022-10-26T05:58:01.905Z,8.27
2022-10-26T06:00:32.047Z,8.27
2022-10-26T06:03:12.764Z,8.90
2022-10-26T06:05:52.280Z,7.80
2022-10-26T06:08:21.545Z,10.00
2022-10-26T06:10:53.840Z,9.13
2022-10-26T06:13:23.213Z,9.33
2022-10-26T06:16:06.816Z,8.27
2022-10-26T06:18:45.649Z,7.53
2022-10-26T06:21:29.664Z,9.80
2022-10-26T06:24:03.837Z,9.27
2022-10-26T06:26:43.363Z,7.57
2022-10-26T06:29:23.140Z,7.13
2022-10-26T06:31:51.708Z,7.73
2022-10-26T06:34:26.034Z,6.73
2022-10-26T06:36:55.625Z,6.23
2022-10-26T06:39:26.846Z,6.93
2022-10-26T06:41:58.053Z,7.60
2022-10-26T06:44:27.126Z,6.73
2022-10-26T06:47:02.297Z,8.20
2022-10-26T06:49:33.149Z,7.80
2022-10-26T06:52:03.883Z,8.43
2022-10-26T06:54:46.563Z,9.77
2022-10-26T06:57:18.200Z,9.03
2022-10-26T06:59:52.618Z,9.30
2022-10-26T07:02:21.567Z,10.60
2022-10-26T07:04:50.411Z,10.00
2022-10-26T07:07:21.131Z,11.67
2022-10-26T07:09:49.902Z,12.40
2022-10-26T07:12:19.809Z,13.63
2022-10-26T07:14:48.426Z,12.47
2022-10-26T07:17:17.408Z,11.60
2022-10-26T07:19:45.860Z,10.13
2022-10-26T07:22:14.677Z,11.70
2022-10-26T07:24:43.145Z,11.17
2022-10-26T07:27:11.651Z,11.67
2022-10-26T07:29:41.499Z,12.27
2022-10-26T07:32:10.004Z,11.57
2022-10-26T07:34:38.429Z,11.23
2022-10-26T07:37:07.343Z,12.83
2022-10-26T07:39:35.825Z,12.13
2022-10-26T07:42:04.380Z,12.20
2022-10-26T07:44:32.898Z,12.87
2022-10-26T07:47:02.826Z,12.23
2022-10-26T07:49:31.385Z,14.57
2022-10-26T07:51:59.913Z,12.20
2022-10-26T07:54:28.421Z,11.20
2022-10-26T07:56:56.911Z,11.70
2022-10-26T07:59:25.606Z,12.00
2022-10-26T08:01:54.522Z,10.67
2022-10-26T08:04:24.464Z,9.90
2022-10-26T08:06:53.387Z,10.90
2022-10-26T08:09:21.872Z,11.67
2022-10-26T08:11:50.315Z,11.27
2022-10-26T08:14:18.770Z,9.90
2022-10-26T08:16:48.165Z,9.53
2022-10-26T08:19:16.680Z,10.83
2022-10-26T08:21:46.573Z,11.00
2022-10-26T08:24:15.092Z,9.20
2022-10-26T08:26:43.977Z,11.97
2022-10-26T08:29:12.532Z,12.43
2022-10-26T08:31:41.057Z,10.07
2022-10-26T08:34:09.854Z,9.20
2022-10-26T08:36:38.402Z,11.20
2022-10-26T08:39:08.400Z,9.80
2022-10-26T08:41:39.497Z,10.90
2022-10-26T08:44:22.913Z,10.63
2022-10-26T08:46:54.442Z,11.20
2022-10-26T08:49:26.320Z,9.10
2022-10-26T08:51:58.940Z,10.97
2022-10-26T08:54:38.227Z,10.43
2022-10-26T08:57:15.442Z,9.30
2022-10-26T08:59:50.234Z,9.50
2022-10-26T09:02:21.405Z,8.93
2022-10-26T09:04:50.055Z,8.80
2022-10-26T09:07:41.155Z,9.40
2022-10-26T09:12:59.141Z,7.83
2022-10-26T09:15:36.696Z,9.00
2022-10-26T09:18:18.420Z,9.43
2022-10-26T09:20:58.858Z,8.37
2022-10-26T09:23:44.565Z,6.97
2022-10-26T09:26:16.819Z,7.23
2022-10-26T09:28:49.644Z,7.03
2022-10-26T09:31:19.224Z,6.67
2022-10-26T09:33:48.081Z,6.80
2022-10-26T09:36:21.850Z,8.70
2022-10-26T09:38:57.408Z,6.63
2022-10-26T09:41:32.000Z,6.83
2022-10-26T09:44:06.980Z,5.77
2022-10-26T09:46:45.763Z,5.70
2022-10-26T09:49:17.080Z,5.90
2022-10-26T09:51:46.376Z,4.27
2022-10-26T09:54:17.579Z,4.80
2022-10-26T09:56:51.185Z,3.63
2022-10-26T10:02:37.445Z,5.83
2022-10-26T10:05:49.906Z,4.30
2022-10-26T10:08:20.828Z,3.90
2022-10-26T10:11:00.372Z,4.03
2022-10-26T10:13:32.163Z,4.90
2022-10-26T10:16:07.420Z,4.90
2022-10-26T10:18:40.388Z,4.30
2022-10-26T10:21:10.645Z,4.70
2022-10-26T10:23:48.867Z,5.20
2022-10-26T10:26:17.385Z,5.23
2022-10-26T10:28:58.333Z,5.20
2022-10-26T10:31:30.883Z,5.00
2022-10-26T10:33:59.628Z,5.40
2022-10-26T10:36:30.453Z,5.43
2022-10-26T10:38:59.170Z,5.30
2022-10-26T10:41:30.500Z,4.57
2022-10-26T10:44:06.889Z,5.33
2022-10-26T10:46:37.670Z,5.10
2022-10-26T10:49:08.280Z,5.27
2022-10-26T10:51:46.871Z,4.30
2022-10-26T10:54:28.923Z,6.30
2022-10-26T10:57:04.399Z,4.87
2022-10-26T10:59:47.920Z,5.00
2022-10-26T11:02:49.400Z,4.93
2022-10-26T11:05:44.976Z,3.93
2022-10-26T11:08:18.391Z,4.07
2022-10-26T11:10:52.309Z,4.73
2022-10-26T11:13:25.025Z,3.87
2022-10-26T11:16:02.022Z,3.83
2022-10-26T11:18:36.091Z,4.63
2022-10-26T11:21:09.987Z,3.70
2022-10-26T11:23:44.216Z,3.70
2022-10-26T11:26:18.587Z,5.30
2022-10-26T11:28:55.279Z,3.93
2022-10-26T11:31:30.670Z,3.57
2022-10-26T11:34:14.644Z,3.57
2022-10-26T11:36:47.831Z,3.53
2022-10-26T11:39:26.522Z,5.27
2022-10-26T11:42:02.278Z,3.47
2022-10-26T11:44:36.981Z,3.50
2022-10-26T11:47:15.894Z,3.80
2022-10-26T11:49:50.679Z,3.40
2022-10-26T11:52:25.386Z,3.00
2022-10-26T11:54:57.217Z,3.40
2022-10-26T11:57:30.729Z,3.30
2022-10-26T12:00:03.446Z,2.80
2022-10-26T12:02:39.154Z,3.30
2022-10-26T12:05:18.619Z,3.40
2022-10-26T12:07:51.717Z,3.60
2022-10-26T12:10:42.916Z,3.53
2022-10-26T12:13:22.075Z,2.73
2022-10-26T12:16:09.231Z,3.60
2022-10-26T12:18:59.748Z,3.73
2022-10-26T12:21:32.308Z,3.80
2022-10-26T12:24:05.185Z,4.27
2022-10-26T12:26:41.292Z,3.27
2022-10-26T12:29:39.282Z,3.23
2022-10-26T12:32:59.434Z,3.43
2022-10-26T12:35:50.251Z,3.30
2022-10-26T12:39:00.291Z,3.10
2022-10-26T12:41:36.523Z,2.97
2022-10-26T12:44:35.225Z,3.53
2022-10-26T12:47:08.066Z,2.70
2022-10-26T12:50:01.150Z,2.50
2022-10-26T12:52:54.210Z,2.87
2022-10-26T12:55:49.155Z,1.80
2022-10-26T12:58:39.881Z,2.13
2022-10-26T13:01:41.506Z,1.83
2022-10-26T13:04:28.815Z,1.23
2022-10-26T13:07:23.420Z,1.67
2022-10-26T13:09:59.727Z,1.30
2022-10-26T13:12:30.983Z,1.50
2022-10-26T13:15:08.073Z,1.50
2022-10-26T13:17:37.649Z,1.20
2022-10-26T13:20:08.438Z,2.37
2022-10-26T13:22:55.408Z,2.17
2022-10-26T13:25:28.988Z,1.57
2022-10-26T13:28:05.094Z,1.23
2022-10-26T13:30:44.064Z,1.33
2022-10-26T13:33:34.167Z,1.20
2022-10-26T13:36:08.725Z,1.43
2022-10-26T13:38:39.982Z,1.27
2022-10-26T13:41:42.536Z,1.20
2022-10-26T13:44:23.731Z,1.30
2022-10-26T13:46:59.512Z,1.50
2022-10-26T13:49:44.091Z,1.30
2022-10-26T13:52:18.017Z,1.03
2022-10-26T13:54:49.818Z,1.47
2022-10-26T13:57:30.440Z,2.17
2022-10-26T14:00:09.742Z,1.93
2022-10-26T14:02:49.089Z,1.50
2022-10-26T14:05:20.025Z,1.70
2022-10-26T14:07:56.597Z,2.43
2022-10-26T14:10:31.235Z,1.60
2022-10-26T14:13:02.349Z,2.23
2022-10-26T14:15:33.244Z,1.50
2022-10-26T14:18:04.101Z,1.90
2022-10-26T14:20:33.980Z,2.10
2022-10-26T14:23:02.513Z,1.83
2022-10-26T14:25:42.087Z,1.57
2022-10-26T14:28:34.377Z,2.60
2022-10-26T14:31:25.624Z,1.57
2022-10-26T14:33:55.396Z,1.50
2022-10-26T14:36:35.270Z,1.80
2022-10-26T14:39:10.510Z,1.60
2022-10-26T14:44:18.331Z,2.20
2022-10-26T14:46:47.361Z,2.87
2022-10-26T14:49:21.364Z,2.47
2022-10-26T14:51:50.858Z,1.80
2022-10-26T14:54:26.163Z,2.70
2022-10-26T14:56:55.327Z,1.77
2022-10-26T14:59:28.682Z,2.27
2022-10-26T15:02:02.929Z,2.50
2022-10-26T15:04:34.697Z,2.33
2022-10-26T15:07:16.623Z,2.30
2022-10-26T15:09:47.049Z,2.37
2022-10-26T15:12:31.489Z,2.90
2022-10-26T15:15:11.807Z,2.17
2022-10-26T15:17:57.272Z,1.70
2022-10-26T15:20:48.844Z,2.00
2022-10-26T15:23:23.104Z,4.20
2022-10-26T15:25:56.042Z,2.53
2022-10-26T15:28:28.984Z,3.23
2022-10-26T15:31:04.195Z,3.13
2022-10-26T15:33:44.234Z,2.50
2022-10-26T15:36:21.787Z,2.70
2022-10-26T15:38:52.416Z,3.43
2022-10-26T15:41:28.894Z,3.00
2022-10-26T15:44:01.291Z,2.70
2022-10-26T15:46:38.928Z,2.50
2022-10-26T15:49:21.041Z,2.37
2022-10-26T15:51:53.480Z,3.10
2022-10-26T15:54:22.269Z,3.20
2022-10-26T15:56:51.289Z,3.60
2022-10-26T15:59:25.826Z,4.07
2022-10-26T16:02:01.750Z,3.40
2022-10-26T16:04:30.731Z,3.60
2022-10-26T16:07:05.863Z,4.17
2022-10-26T16:09:45.415Z,5.37
2022-10-26T16:12:17.513Z,3.53
2022-10-26T16:15:04.241Z,3.97
2022-10-26T16:17:34.779Z,3.63
2022-10-26T16:20:08.738Z,4.77
2022-10-26T16:22:42.051Z,4.67
2022-10-26T16:25:12.730Z,4.07
2022-10-26T16:27:41.741Z,3.80
2022-10-26T16:30:11.306Z,12.30
2022-10-26T16:32:41.341Z,13.80
2022-10-26T16:35:10.441Z,10.37
2022-10-26T16:37:39.224Z,10.60
2022-10-26T16:40:09.158Z,10.40
2022-10-26T16:42:37.877Z,8.80
2022-10-26T16:45:07.416Z,9.50
2022-10-26T16:47:37.019Z,6.73
2022-10-26T16:50:08.459Z,8.77
2022-10-26T16:52:37.953Z,7.07
2022-10-26T16:55:08.956Z,8.73
2022-10-26T16:57:38.434Z,6.67
2022-10-26T17:00:08.740Z,6.80
2022-10-26T17:02:37.652Z,5.90
2022-10-26T17:05:11.317Z,6.33
2022-10-26T17:07:40.069Z,6.50
2022-10-26T17:10:09.564Z,6.23
2022-10-26T17:12:38.209Z,6.73
2022-10-26T17:15:07.653Z,6.30
2022-10-26T17:17:36.297Z,6.10
2022-10-26T17:20:05.125Z,6.83
2022-10-26T17:22:35.381Z,8.13
2022-10-26T17:25:04.219Z,7.53
2022-10-26T17:27:36.432Z,7.00
2022-10-26T17:30:05.429Z,8.63
2022-10-26T17:32:34.048Z,8.00
2022-10-26T17:35:03.180Z,8.10
2022-10-26T17:37:35.377Z,7.33
2022-10-26T17:40:05.909Z,6.80
2022-10-26T17:42:34.733Z,8.13
2022-10-26T17:45:06.074Z,7.70
2022-10-26T17:47:34.696Z,7.83
2022-10-26T17:50:04.252Z,7.57
2022-10-26T17:52:33.877Z,8.20
2022-10-26T17:55:07.149Z,8.83
2022-10-26T17:57:36.197Z,8.80
2022-10-26T18:00:06.493Z,9.20
2022-10-26T18:02:37.705Z,8.00
2022-10-26T18:05:08.407Z,8.70
2022-10-26T18:07:37.359Z,9.67
2022-10-26T18:10:26.147Z,9.73
2022-10-26T18:12:59.716Z,10.10
2022-10-26T18:15:28.500Z,12.70
2022-10-26T18:18:00.906Z,10.90
2022-10-26T18:20:29.504Z,13.40
2022-10-26T18:22:58.503Z,11.67
2022-10-26T18:25:31.552Z,10.97
2022-10-26T18:28:00.710Z,10.93
2022-10-26T18:30:32.313Z,10.90
2022-10-26T18:33:05.597Z,12.80
2022-10-26T18:35:35.492Z,10.70
2022-10-26T18:38:04.180Z,12.10
2022-10-26T18:40:34.253Z,10.97
2022-10-26T18:43:02.935Z,11.10
2022-10-26T18:45:31.732Z,12.87
2022-10-26T18:48:02.409Z,12.50
2022-10-26T18:50:31.298Z,12.37
2022-10-26T18:53:00.018Z,12.00
2022-10-26T18:55:48.571Z,10.70
2022-10-26T18:58:20.425Z,20.40
2022-10-26T19:00:49.289Z,12.67
2022-10-26T19:03:18.252Z,13.33
2022-10-26T19:05:47.003Z,13.13
2022-10-26T19:08:15.711Z,12.40
2022-10-26T19:10:46.054Z,12.60
2022-10-26T19:13:17.664Z,13.87
2022-10-26T19:15:46.475Z,12.10
2022-10-26T19:18:16.025Z,10.80
2022-10-26T19:20:47.325Z,9.63
2022-10-26T19:23:20.749Z,10.30
2022-10-26T19:25:56.445Z,11.23
2022-10-26T19:28:25.055Z,10.37
2022-10-26T19:30:53.553Z,10.90
2022-10-26T19:33:25.004Z,10.63
2022-10-26T19:35:54.356Z,11.83
2022-10-26T19:38:23.608Z,13.50
2022-10-26T19:41:00.581Z,13.60
2022-10-26T19:43:30.869Z,12.17
2022-10-26T19:46:00.218Z,12.93
2022-10-26T19:48:28.915Z,12.60
2022-10-26T19:50:58.527Z,12.07
2022-10-26T19:53:27.498Z,13.70
2022-10-26T19:56:02.064Z,12.93
2022-10-26T19:58:32.612Z,11.70
2022-10-26T20:01:02.999Z,13.30
2022-10-26T20:03:32.597Z,13.43
2022-10-26T20:06:02.427Z,14.17
2022-10-26T20:08:31.393Z,14.63
2022-10-26T20:11:01.386Z,13.73
2022-10-26T20:13:32.758Z,14.60
2022-10-26T20:16:01.464Z,12.53
2022-10-26T20:18:30.104Z,14.23
2022-10-26T20:20:58.753Z,17.63
2022-10-26T20:23:27.417Z,14.43
2022-10-26T20:25:58.388Z,12.50
2022-10-26T20:28:28.301Z,13.30
2022-10-26T20:30:57.014Z,13.50
2022-10-26T20:33:25.558Z,14.70
2022-10-26T20:35:58.262Z,16.30
2022-10-26T20:38:27.778Z,14.70
2022-10-26T20:40:57.984Z,14.13
2022-10-26T20:43:29.711Z,13.57
2022-10-26T20:45:58.917Z,13.57
2022-10-26T20:48:32.282Z,14.90
2022-10-26T20:53:44.568Z,12.27
2022-10-26T20:56:21.354Z,13.70
2022-10-26T20:58:54.141Z,13.07
2022-10-26T21:01:35.243Z,16.63
2022-10-26T21:04:05.550Z,15.20
2022-10-26T21:06:40.159Z,13.97
2022-10-26T21:09:09.731Z,14.63
2022-10-26T21:11:38.736Z,14.97
2022-10-26T21:14:08.764Z,15.17
2022-10-26T21:16:37.582Z,14.20
2022-10-26T21:19:08.486Z,15.40
2022-10-26T21:21:37.086Z,13.40
2022-10-26T21:24:06.155Z,13.07
2022-10-26T21:26:34.906Z,15.10
2022-10-26T21:29:05.306Z,13.80
2022-10-26T21:31:35.782Z,14.20
2022-10-26T21:34:08.003Z,12.80
2022-10-26T21:36:39.162Z,12.83
2022-10-26T21:39:07.944Z,12.00
2022-10-26T21:41:40.807Z,13.43
2022-10-26T21:44:22.371Z,13.77
2022-10-26T21:47:00.171Z,12.13
2022-10-26T21:49:28.693Z,12.97
2022-10-26T21:51:57.298Z,11.87
2022-10-26T21:54:25.932Z,12.03
2022-10-26T21:56:54.570Z,12.33
2022-10-26T21:59:25.020Z,11.70
2022-10-26T22:01:53.691Z,13.97
2022-10-26T22:04:23.870Z,13.07
2022-10-26T22:06:52.517Z,12.37
2022-10-26T22:09:21.046Z,12.60
2022-10-26T22:11:49.632Z,13.03
2022-10-26T22:14:20.508Z,13.53
2022-10-26T22:16:49.039Z,11.87
2022-10-26T22:19:19.688Z,12.70
2022-10-26T22:21:49.670Z,11.20
2022-10-26T22:24:18.448Z,10.60
2022-10-26T22:26:49.099Z,11.27
2022-10-26T22:29:17.633Z,10.80
2022-10-26T22:31:46.104Z,11.50
2022-10-26T22:34:17.639Z,12.10
2022-10-26T22:36:46.251Z,13.43
2022-10-26T22:39:17.778Z,12.07
2022-10-26T22:41:46.236Z,12.23
2022-10-26T22:44:14.859Z,12.00
2022-10-26T22:46:43.387Z,10.60
2022-10-26T22:49:13.478Z,12.10
2022-10-26T22:51:41.960Z,11.90
2022-10-26T22:54:12.155Z,11.20
2022-10-26T22:56:42.120Z,10.40
2022-10-26T22:59:10.634Z,11.67
2022-10-26T23:01:41.846Z,11.53
2022-10-26T23:04:13.138Z,10.53
2022-10-26T23:06:41.995Z,10.60
2022-10-26T23:09:10.509Z,10.60
2022-10-26T23:11:39.011Z,9.40
2022-10-26T23:14:10.211Z,10.60
2022-10-26T23:16:38.664Z,9.90
2022-10-26T23:19:07.230Z,9.40
2022-10-26T23:21:35.759Z,9.23
2022-10-26T23:24:04.467Z,8.93
2022-10-26T23:26:32.976Z,9.13
2022-10-26T23:29:01.480Z,9.53
2022-10-26T23:31:31.705Z,10.83
2022-10-26T23:34:00.223Z,9.50
2022-10-26T23:36:28.750Z,10.60
2022-10-26T23:38:57.942Z,11.03
2022-10-26T23:41:26.485Z,9.90
2022-10-26T23:43:54.968Z,10.00
2022-10-26T23:46:23.562Z,9.50
2022-10-26T23:48:53.544Z,10.40
2022-10-26T23:51:21.991Z,9.07
2022-10-26T23:53:50.541Z,9.93
2022-10-26T23:56:19.039Z,9.23
2022-10-26T23:58:51.621Z,11.00
